sensor_id;sensor_type;location;lat;lon;timestamp;temperature;humidity
79301;SHT31;68755;51.984;5.646;2023-11-19T00:01:57;13.6;89.5
79301;SHT31;68755;51.984;5.646;2023-11-19T00:04:26;13.6;89.2
79301;SHT31;68755;51.984;5.646;2023-11-19T00:06:57;13.6;89.2
79301;SHT31;68755;51.984;5.646;2023-11-19T00:09:31;13.6;89.0
79301;SHT31;68755;51.984;5.646;2023-11-19T00:12:04;13.6;89.1
79301;SHT31;68755;51.984;5.646;2023-11-19T00:14:34;13.7;89.0
79301;SHT31;68755;51.984;5.646;2023-11-19T00:17:03;13.7;89.0
79301;SHT31;68755;51.984;5.646;2023-11-19T00:19:33;13.7;89.0
79301;SHT31;68755;51.984;5.646;2023-11-19T00:22:03;13.7;89.0
79301;SHT31;68755;51.984;5.646;2023-11-19T00:24:32;13.7;89.0
79301;SHT31;68755;51.984;5.646;2023-11-19T00:27:02;13.7;89.0
79301;SHT31;68755;51.984;5.646;2023-11-19T00:29:32;13.7;88.7
79301;SHT31;68755;51.984;5.646;2023-11-19T00:32:02;13.7;88.6
79301;SHT31;68755;51.984;5.646;2023-11-19T00:34:32;13.7;88.6
79301;SHT31;68755;51.984;5.646;2023-11-19T00:37:02;13.8;88.8
79301;SHT31;68755;51.984;5.646;2023-11-19T00:39:32;13.8;88.5
79301;SHT31;68755;51.984;5.646;2023-11-19T00:42:02;13.8;88.5
79301;SHT31;68755;51.984;5.646;2023-11-19T00:44:32;13.8;88.5
79301;SHT31;68755;51.984;5.646;2023-11-19T00:47:02;13.8;88.4
79301;SHT31;68755;51.984;5.646;2023-11-19T00:49:32;13.8;88.4
79301;SHT31;68755;51.984;5.646;2023-11-19T00:52:02;13.8;88.3
79301;SHT31;68755;51.984;5.646;2023-11-19T00:54:32;13.8;88.1
79301;SHT31;68755;51.984;5.646;2023-11-19T00:57:01;13.8;87.9
79301;SHT31;68755;51.984;5.646;2023-11-19T00:59:33;13.8;87.8
79301;SHT31;68755;51.984;5.646;2023-11-19T01:02:03;13.9;87.9
79301;SHT31;68755;51.984;5.646;2023-11-19T01:04:36;13.9;88.1
79301;SHT31;68755;51.984;5.646;2023-11-19T01:07:06;13.9;88.0
79301;SHT31;68755;51.984;5.646;2023-11-19T01:09:43;14.0;87.6
79301;SHT31;68755;51.984;5.646;2023-11-19T01:12:13;14.1;87.0
79301;SHT31;68755;51.984;5.646;2023-11-19T01:14:44;14.1;86.7
79301;SHT31;68755;51.984;5.646;2023-11-19T01:17:14;14.1;86.6
79301;SHT31;68755;51.984;5.646;2023-11-19T01:19:43;14.1;86.5
79301;SHT31;68755;51.984;5.646;2023-11-19T01:22:13;14.1;86.6
79301;SHT31;68755;51.984;5.646;2023-11-19T01:24:42;14.1;86.5
79301;SHT31;68755;51.984;5.646;2023-11-19T01:27:12;14.1;86.3
79301;SHT31;68755;51.984;5.646;2023-11-19T01:29:41;14.1;86.3
79301;SHT31;68755;51.984;5.646;2023-11-19T01:32:11;14.1;86.2
79301;SHT31;68755;51.984;5.646;2023-11-19T01:34:41;14.1;86.1
79301;SHT31;68755;51.984;5.646;2023-11-19T01:37:11;14.1;86.1
79301;SHT31;68755;51.984;5.646;2023-11-19T01:39:43;14.0;86.1
79301;SHT31;68755;51.984;5.646;2023-11-19T01:42:13;14.0;86.0
79301;SHT31;68755;51.984;5.646;2023-11-19T01:44:53;14.0;86.0
79301;SHT31;68755;51.984;5.646;2023-11-19T01:47:17;14.0;86.1
79301;SHT31;68755;51.984;5.646;2023-11-19T01:49:47;14.0;86.0
79301;SHT31;68755;51.984;5.646;2023-11-19T01:52:18;14.0;86.1
79301;SHT31;68755;51.984;5.646;2023-11-19T01:54:48;14.0;86.0
79301;SHT31;68755;51.984;5.646;2023-11-19T01:57:19;14.0;85.9
79301;SHT31;68755;51.984;5.646;2023-11-19T01:59:52;14.0;85.8
79301;SHT31;68755;51.984;5.646;2023-11-19T02:02:23;14.0;85.8
79301;SHT31;68755;51.984;5.646;2023-11-19T02:04:53;14.0;85.6
79301;SHT31;68755;51.984;5.646;2023-11-19T02:07:24;14.0;85.5
79301;SHT31;68755;51.984;5.646;2023-11-19T02:09:54;14.0;85.4
79301;SHT31;68755;51.984;5.646;2023-11-19T02:12:26;14.0;85.2
79301;SHT31;68755;51.984;5.646;2023-11-19T02:15:01;14.0;85.1
79301;SHT31;68755;51.984;5.646;2023-11-19T02:17:32;14.0;84.9
79301;SHT31;68755;51.984;5.646;2023-11-19T02:20:04;14.0;84.8
79301;SHT31;68755;51.984;5.646;2023-11-19T02:22:36;13.9;84.8
79301;SHT31;68755;51.984;5.646;2023-11-19T02:25:08;13.9;84.7
79301;SHT31;68755;51.984;5.646;2023-11-19T02:27:44;13.9;84.7
79301;SHT31;68755;51.984;5.646;2023-11-19T02:30:16;13.9;84.7
79301;SHT31;68755;51.984;5.646;2023-11-19T02:32:45;13.9;84.6
79301;SHT31;68755;51.984;5.646;2023-11-19T02:35:15;13.9;84.5
79301;SHT31;68755;51.984;5.646;2023-11-19T02:37:45;13.9;84.5
79301;SHT31;68755;51.984;5.646;2023-11-19T02:40:15;13.8;84.4
79301;SHT31;68755;51.984;5.646;2023-11-19T02:42:47;13.8;84.3
79301;SHT31;68755;51.984;5.646;2023-11-19T02:45:18;13.8;84.2
79301;SHT31;68755;51.984;5.646;2023-11-19T02:47:50;13.8;84.0
79301;SHT31;68755;51.984;5.646;2023-11-19T02:50:21;13.8;84.0
79301;SHT31;68755;51.984;5.646;2023-11-19T02:52:55;13.8;83.8
79301;SHT31;68755;51.984;5.646;2023-11-19T02:55:25;13.8;83.7
79301;SHT31;68755;51.984;5.646;2023-11-19T02:57:57;13.8;83.4
79301;SHT31;68755;51.984;5.646;2023-11-19T03:00:27;13.7;83.2
79301;SHT31;68755;51.984;5.646;2023-11-19T03:03:05;13.7;83.1
79301;SHT31;68755;51.984;5.646;2023-11-19T03:05:40;13.7;83.1
79301;SHT31;68755;51.984;5.646;2023-11-19T03:08:09;13.7;83.3
79301;SHT31;68755;51.984;5.646;2023-11-19T03:10:39;13.6;83.3
79301;SHT31;68755;51.984;5.646;2023-11-19T03:13:12;13.6;83.2
79301;SHT31;68755;51.984;5.646;2023-11-19T03:15:44;13.6;83.2
79301;SHT31;68755;51.984;5.646;2023-11-19T03:18:14;13.6;83.2
79301;SHT31;68755;51.984;5.646;2023-11-19T03:20:43;13.5;83.1
79301;SHT31;68755;51.984;5.646;2023-11-19T03:23:13;13.5;83.1
79301;SHT31;68755;51.984;5.646;2023-11-19T03:25:43;13.5;83.1
79301;SHT31;68755;51.984;5.646;2023-11-19T03:28:14;13.4;83.0
79301;SHT31;68755;51.984;5.646;2023-11-19T03:30:44;13.4;83.0
79301;SHT31;68755;51.984;5.646;2023-11-19T03:33:13;13.4;82.9
79301;SHT31;68755;51.984;5.646;2023-11-19T03:35:43;13.4;82.9
79301;SHT31;68755;51.984;5.646;2023-11-19T03:38:13;13.3;83.0
79301;SHT31;68755;51.984;5.646;2023-11-19T03:40:43;13.3;83.1
79301;SHT31;68755;51.984;5.646;2023-11-19T03:43:13;13.3;82.9
79301;SHT31;68755;51.984;5.646;2023-11-19T03:45:43;13.3;82.8
79301;SHT31;68755;51.984;5.646;2023-11-19T03:48:14;13.2;82.8
79301;SHT31;68755;51.984;5.646;2023-11-19T03:50:46;13.2;82.8
79301;SHT31;68755;51.984;5.646;2023-11-19T03:53:16;13.2;82.8
79301;SHT31;68755;51.984;5.646;2023-11-19T03:55:46;13.1;82.8
79301;SHT31;68755;51.984;5.646;2023-11-19T03:58:17;13.1;83.0
79301;SHT31;68755;51.984;5.646;2023-11-19T04:00:46;13.1;82.8
79301;SHT31;68755;51.984;5.646;2023-11-19T04:03:16;13.0;82.9
79301;SHT31;68755;51.984;5.646;2023-11-19T04:05:47;13.0;83.0
79301;SHT31;68755;51.984;5.646;2023-11-19T04:08:16;13.0;82.8
79301;SHT31;68755;51.984;5.646;2023-11-19T04:10:47;13.0;82.8
79301;SHT31;68755;51.984;5.646;2023-11-19T04:13:18;12.9;82.7
79301;SHT31;68755;51.984;5.646;2023-11-19T04:15:50;12.9;82.7
79301;SHT31;68755;51.984;5.646;2023-11-19T04:18:21;12.9;82.6
79301;SHT31;68755;51.984;5.646;2023-11-19T04:20:51;12.9;82.9
79301;SHT31;68755;51.984;5.646;2023-11-19T04:23:21;12.8;82.9
79301;SHT31;68755;51.984;5.646;2023-11-19T04:25:52;12.8;82.6
79301;SHT31;68755;51.984;5.646;2023-11-19T04:28:21;12.8;82.6
79301;SHT31;68755;51.984;5.646;2023-11-19T04:30:54;12.8;82.6
79301;SHT31;68755;51.984;5.646;2023-11-19T04:33:24;12.7;82.3
79301;SHT31;68755;51.984;5.646;2023-11-19T04:35:54;12.7;82.3
79301;SHT31;68755;51.984;5.646;2023-11-19T04:38:23;12.7;82.4
79301;SHT31;68755;51.984;5.646;2023-11-19T04:40:54;12.7;82.4
79301;SHT31;68755;51.984;5.646;2023-11-19T04:43:24;12.7;82.6
79301;SHT31;68755;51.984;5.646;2023-11-19T04:45:56;12.6;82.5
79301;SHT31;68755;51.984;5.646;2023-11-19T04:48:25;12.6;82.4
79301;SHT31;68755;51.984;5.646;2023-11-19T04:50:57;12.6;82.5
79301;SHT31;68755;51.984;5.646;2023-11-19T04:53:26;12.6;82.3
79301;SHT31;68755;51.984;5.646;2023-11-19T04:55:56;12.6;82.2
79301;SHT31;68755;51.984;5.646;2023-11-19T04:58:29;12.6;82.4
79301;SHT31;68755;51.984;5.646;2023-11-19T05:00:58;12.6;82.3
79301;SHT31;68755;51.984;5.646;2023-11-19T05:03:28;12.5;82.3
79301;SHT31;68755;51.984;5.646;2023-11-19T05:05:59;12.5;82.3
79301;SHT31;68755;51.984;5.646;2023-11-19T05:08:30;12.5;82.4
79301;SHT31;68755;51.984;5.646;2023-11-19T05:11:00;12.5;82.1
79301;SHT31;68755;51.984;5.646;2023-11-19T05:13:30;12.5;82.1
79301;SHT31;68755;51.984;5.646;2023-11-19T05:16:00;12.5;82.4
79301;SHT31;68755;51.984;5.646;2023-11-19T05:18:29;12.5;82.5
79301;SHT31;68755;51.984;5.646;2023-11-19T05:20:59;12.5;82.4
79301;SHT31;68755;51.984;5.646;2023-11-19T05:23:28;12.5;82.5
79301;SHT31;68755;51.984;5.646;2023-11-19T05:25:58;12.5;82.5
79301;SHT31;68755;51.984;5.646;2023-11-19T05:28:27;12.5;82.3
79301;SHT31;68755;51.984;5.646;2023-11-19T05:30:57;12.5;82.2
79301;SHT31;68755;51.984;5.646;2023-11-19T05:33:27;12.5;82.2
79301;SHT31;68755;51.984;5.646;2023-11-19T05:35:56;12.5;82.1
79301;SHT31;68755;51.984;5.646;2023-11-19T05:38:26;12.5;81.8
79301;SHT31;68755;51.984;5.646;2023-11-19T05:40:56;12.5;81.9
79301;SHT31;68755;51.984;5.646;2023-11-19T05:43:26;12.5;82.0
79301;SHT31;68755;51.984;5.646;2023-11-19T05:45:55;12.5;81.8
79301;SHT31;68755;51.984;5.646;2023-11-19T05:48:26;12.5;82.0
79301;SHT31;68755;51.984;5.646;2023-11-19T05:50:56;12.5;82.1
79301;SHT31;68755;51.984;5.646;2023-11-19T05:53:25;12.6;82.0
79301;SHT31;68755;51.984;5.646;2023-11-19T05:55:55;12.6;81.7
79301;SHT31;68755;51.984;5.646;2023-11-19T05:58:26;12.6;81.7
79301;SHT31;68755;51.984;5.646;2023-11-19T06:00:57;12.6;81.4
79301;SHT31;68755;51.984;5.646;2023-11-19T06:03:28;12.6;81.3
79301;SHT31;68755;51.984;5.646;2023-11-19T06:05:57;12.6;81.3
79301;SHT31;68755;51.984;5.646;2023-11-19T06:08:27;12.5;81.4
79301;SHT31;68755;51.984;5.646;2023-11-19T06:11:00;12.5;81.4
79301;SHT31;68755;51.984;5.646;2023-11-19T06:13:30;12.5;81.5
79301;SHT31;68755;51.984;5.646;2023-11-19T06:16:00;12.5;81.6
79301;SHT31;68755;51.984;5.646;2023-11-19T06:18:30;12.5;81.6
79301;SHT31;68755;51.984;5.646;2023-11-19T06:20:59;12.5;81.6
79301;SHT31;68755;51.984;5.646;2023-11-19T06:23:29;12.5;81.6
79301;SHT31;68755;51.984;5.646;2023-11-19T06:25:58;12.5;81.6
79301;SHT31;68755;51.984;5.646;2023-11-19T06:28:30;12.4;81.6
79301;SHT31;68755;51.984;5.646;2023-11-19T06:31:00;12.4;81.7
79301;SHT31;68755;51.984;5.646;2023-11-19T06:33:29;12.4;81.7
79301;SHT31;68755;51.984;5.646;2023-11-19T06:35:59;12.4;81.7
79301;SHT31;68755;51.984;5.646;2023-11-19T06:38:29;12.4;81.7
79301;SHT31;68755;51.984;5.646;2023-11-19T06:40:58;12.4;81.9
79301;SHT31;68755;51.984;5.646;2023-11-19T06:43:28;12.4;81.7
79301;SHT31;68755;51.984;5.646;2023-11-19T06:46:01;12.4;81.8
79301;SHT31;68755;51.984;5.646;2023-11-19T06:48:33;12.4;82.1
79301;SHT31;68755;51.984;5.646;2023-11-19T06:51:05;12.4;82.1
79301;SHT31;68755;51.984;5.646;2023-11-19T06:53:34;12.4;82.0
79301;SHT31;68755;51.984;5.646;2023-11-19T06:56:04;12.4;82.1
79301;SHT31;68755;51.984;5.646;2023-11-19T06:58:37;12.4;81.6
79301;SHT31;68755;51.984;5.646;2023-11-19T07:01:08;12.4;81.5
79301;SHT31;68755;51.984;5.646;2023-11-19T07:03:38;12.4;81.7
79301;SHT31;68755;51.984;5.646;2023-11-19T07:06:08;12.4;81.8
79301;SHT31;68755;51.984;5.646;2023-11-19T07:08:37;12.4;81.9
79301;SHT31;68755;51.984;5.646;2023-11-19T07:11:09;12.4;82.1
79301;SHT31;68755;51.984;5.646;2023-11-19T07:13:40;12.4;82.2
79301;SHT31;68755;51.984;5.646;2023-11-19T07:16:10;12.4;81.9
79301;SHT31;68755;51.984;5.646;2023-11-19T07:18:40;12.4;81.7
79301;SHT31;68755;51.984;5.646;2023-11-19T07:21:13;12.4;81.5
79301;SHT31;68755;51.984;5.646;2023-11-19T07:23:42;12.5;81.4
79301;SHT31;68755;51.984;5.646;2023-11-19T07:26:14;12.4;81.3
79301;SHT31;68755;51.984;5.646;2023-11-19T07:28:44;12.4;81.2
79301;SHT31;68755;51.984;5.646;2023-11-19T07:31:14;12.4;81.4
79301;SHT31;68755;51.984;5.646;2023-11-19T07:33:46;12.4;81.4
79301;SHT31;68755;51.984;5.646;2023-11-19T07:36:18;12.4;81.7
79301;SHT31;68755;51.984;5.646;2023-11-19T07:38:48;12.4;81.6
79301;SHT31;68755;51.984;5.646;2023-11-19T07:41:18;12.5;81.7
79301;SHT31;68755;51.984;5.646;2023-11-19T07:43:48;12.5;81.7
79301;SHT31;68755;51.984;5.646;2023-11-19T07:46:19;12.5;81.6
79301;SHT31;68755;51.984;5.646;2023-11-19T07:48:48;12.5;81.8
79301;SHT31;68755;51.984;5.646;2023-11-19T07:51:18;12.5;82.0
79301;SHT31;68755;51.984;5.646;2023-11-19T07:53:48;12.6;82.1
79301;SHT31;68755;51.984;5.646;2023-11-19T07:56:19;12.6;82.2
79301;SHT31;68755;51.984;5.646;2023-11-19T07:58:49;12.6;81.9
79301;SHT31;68755;51.984;5.646;2023-11-19T08:01:19;12.6;82.1
79301;SHT31;68755;51.984;5.646;2023-11-19T08:03:51;12.7;81.7
79301;SHT31;68755;51.984;5.646;2023-11-19T08:06:20;12.7;81.5
79301;SHT31;68755;51.984;5.646;2023-11-19T08:08:50;12.8;81.0
79301;SHT31;68755;51.984;5.646;2023-11-19T08:11:20;12.8;80.9
79301;SHT31;68755;51.984;5.646;2023-11-19T08:13:52;12.8;80.7
79301;SHT31;68755;51.984;5.646;2023-11-19T08:16:21;12.8;80.8
79301;SHT31;68755;51.984;5.646;2023-11-19T08:18:53;12.9;80.8
79301;SHT31;68755;51.984;5.646;2023-11-19T08:21:22;12.9;80.5
79301;SHT31;68755;51.984;5.646;2023-11-19T08:23:52;12.9;80.5
79301;SHT31;68755;51.984;5.646;2023-11-19T08:26:21;12.9;80.7
79301;SHT31;68755;51.984;5.646;2023-11-19T08:28:51;12.9;80.4
79301;SHT31;68755;51.984;5.646;2023-11-19T08:31:21;12.9;80.2
79301;SHT31;68755;51.984;5.646;2023-11-19T08:33:51;12.9;80.3
79301;SHT31;68755;51.984;5.646;2023-11-19T08:36:20;13.0;80.1
79301;SHT31;68755;51.984;5.646;2023-11-19T08:38:52;13.0;80.2
79301;SHT31;68755;51.984;5.646;2023-11-19T08:41:21;13.0;80.1
79301;SHT31;68755;51.984;5.646;2023-11-19T08:43:51;13.0;79.9
79301;SHT31;68755;51.984;5.646;2023-11-19T08:46:23;13.0;80.3
79301;SHT31;68755;51.984;5.646;2023-11-19T08:48:53;13.0;80.5
79301;SHT31;68755;51.984;5.646;2023-11-19T08:51:25;13.1;80.4
79301;SHT31;68755;51.984;5.646;2023-11-19T08:53:55;13.1;80.1
79301;SHT31;68755;51.984;5.646;2023-11-19T08:56:25;13.1;80.0
79301;SHT31;68755;51.984;5.646;2023-11-19T08:58:59;13.1;79.7
79301;SHT31;68755;51.984;5.646;2023-11-19T09:01:29;13.1;79.7
79301;SHT31;68755;51.984;5.646;2023-11-19T09:03:58;13.2;79.3
79301;SHT31;68755;51.984;5.646;2023-11-19T09:06:28;13.2;78.7
79301;SHT31;68755;51.984;5.646;2023-11-19T09:08:59;13.2;78.9
79301;SHT31;68755;51.984;5.646;2023-11-19T09:11:30;13.2;78.9
79301;SHT31;68755;51.984;5.646;2023-11-19T09:14:00;13.2;78.5
79301;SHT31;68755;51.984;5.646;2023-11-19T09:16:29;13.2;78.9
79301;SHT31;68755;51.984;5.646;2023-11-19T09:18:59;13.2;78.7
79301;SHT31;68755;51.984;5.646;2023-11-19T09:21:30;13.2;79.0
79301;SHT31;68755;51.984;5.646;2023-11-19T09:24:00;13.2;78.9
79301;SHT31;68755;51.984;5.646;2023-11-19T09:26:29;13.3;79.0
79301;SHT31;68755;51.984;5.646;2023-11-19T09:28:59;13.3;78.9
79301;SHT31;68755;51.984;5.646;2023-11-19T09:31:28;13.3;78.9
79301;SHT31;68755;51.984;5.646;2023-11-19T09:34:00;13.3;78.9
79301;SHT31;68755;51.984;5.646;2023-11-19T09:36:30;13.3;79.0
79301;SHT31;68755;51.984;5.646;2023-11-19T09:38:59;13.3;78.8
79301;SHT31;68755;51.984;5.646;2023-11-19T09:41:29;13.3;78.8
79301;SHT31;68755;51.984;5.646;2023-11-19T09:43:59;13.3;78.7
79301;SHT31;68755;51.984;5.646;2023-11-19T09:46:30;13.4;79.1
79301;SHT31;68755;51.984;5.646;2023-11-19T09:49:02;13.4;78.9
79301;SHT31;68755;51.984;5.646;2023-11-19T09:51:35;13.4;79.4
79301;SHT31;68755;51.984;5.646;2023-11-19T09:54:05;13.4;79.0
79301;SHT31;68755;51.984;5.646;2023-11-19T09:56:36;13.5;79.0
79301;SHT31;68755;51.984;5.646;2023-11-19T09:59:07;13.5;78.9
79301;SHT31;68755;51.984;5.646;2023-11-19T10:01:38;13.5;78.9
79301;SHT31;68755;51.984;5.646;2023-11-19T10:04:09;13.6;78.2
79301;SHT31;68755;51.984;5.646;2023-11-19T10:06:41;13.6;77.3
79301;SHT31;68755;51.984;5.646;2023-11-19T10:09:11;13.7;77.8
79301;SHT31;68755;51.984;5.646;2023-11-19T10:11:42;13.7;77.6
79301;SHT31;68755;51.984;5.646;2023-11-19T10:14:13;13.7;77.3
79301;SHT31;68755;51.984;5.646;2023-11-19T10:16:46;13.8;77.9
79301;SHT31;68755;51.984;5.646;2023-11-19T10:19:21;13.8;77.0
79301;SHT31;68755;51.984;5.646;2023-11-19T10:21:52;13.8;76.9
79301;SHT31;68755;51.984;5.646;2023-11-19T10:24:31;13.8;76.9
79301;SHT31;68755;51.984;5.646;2023-11-19T10:27:02;13.8;76.3
79301;SHT31;68755;51.984;5.646;2023-11-19T10:29:31;13.8;75.8
79301;SHT31;68755;51.984;5.646;2023-11-19T10:32:01;13.8;75.8
79301;SHT31;68755;51.984;5.646;2023-11-19T10:34:34;13.8;76.0
79301;SHT31;68755;51.984;5.646;2023-11-19T10:37:05;13.8;76.2
79301;SHT31;68755;51.984;5.646;2023-11-19T10:39:54;13.8;75.8
79301;SHT31;68755;51.984;5.646;2023-11-19T10:42:24;13.8;76.2
79301;SHT31;68755;51.984;5.646;2023-11-19T10:44:54;13.8;76.0
79301;SHT31;68755;51.984;5.646;2023-11-19T10:47:23;13.8;76.0
79301;SHT31;68755;51.984;5.646;2023-11-19T10:49:56;13.8;76.1
79301;SHT31;68755;51.984;5.646;2023-11-19T10:52:27;13.8;76.1
79301;SHT31;68755;51.984;5.646;2023-11-19T10:55:00;13.8;75.7
79301;SHT31;68755;51.984;5.646;2023-11-19T10:57:36;13.8;75.7
79301;SHT31;68755;51.984;5.646;2023-11-19T11:00:09;13.8;75.8
79301;SHT31;68755;51.984;5.646;2023-11-19T11:02:45;13.8;76.3
79301;SHT31;68755;51.984;5.646;2023-11-19T11:05:19;13.8;75.2
79301;SHT31;68755;51.984;5.646;2023-11-19T11:07:54;13.9;75.7
79301;SHT31;68755;51.984;5.646;2023-11-19T11:10:26;13.9;75.8
79301;SHT31;68755;51.984;5.646;2023-11-19T11:12:59;13.9;75.9
79301;SHT31;68755;51.984;5.646;2023-11-19T11:15:30;13.9;75.6
79301;SHT31;68755;51.984;5.646;2023-11-19T11:18:02;13.9;75.4
79301;SHT31;68755;51.984;5.646;2023-11-19T11:20:33;13.9;75.0
79301;SHT31;68755;51.984;5.646;2023-11-19T11:23:25;13.9;75.6
79301;SHT31;68755;51.984;5.646;2023-11-19T11:26:09;13.9;76.0
79301;SHT31;68755;51.984;5.646;2023-11-19T11:28:48;13.9;76.6
79301;SHT31;68755;51.984;5.646;2023-11-19T11:31:31;14.0;75.9
79301;SHT31;68755;51.984;5.646;2023-11-19T11:34:24;14.0;76.3
79301;SHT31;68755;51.984;5.646;2023-11-19T11:37:09;14.1;75.7
79301;SHT31;68755;51.984;5.646;2023-11-19T11:39:41;14.1;75.3
79301;SHT31;68755;51.984;5.646;2023-11-19T11:42:54;14.1;75.7
79301;SHT31;68755;51.984;5.646;2023-11-19T11:45:38;14.2;75.6
79301;SHT31;68755;51.984;5.646;2023-11-19T11:48:15;14.2;75.7
79301;SHT31;68755;51.984;5.646;2023-11-19T11:50:57;14.3;75.7
79301;SHT31;68755;51.984;5.646;2023-11-19T11:53:29;14.3;75.0
79301;SHT31;68755;51.984;5.646;2023-11-19T11:55:59;14.4;75.1
79301;SHT31;68755;51.984;5.646;2023-11-19T11:58:32;14.4;74.6
79301;SHT31;68755;51.984;5.646;2023-11-19T12:01:04;14.5;73.8
79301;SHT31;68755;51.984;5.646;2023-11-19T12:03:38;14.5;72.9
79301;SHT31;68755;51.984;5.646;2023-11-19T12:06:08;14.6;72.8
79301;SHT31;68755;51.984;5.646;2023-11-19T12:08:39;14.6;72.7
79301;SHT31;68755;51.984;5.646;2023-11-19T12:11:08;14.6;71.6
79301;SHT31;68755;51.984;5.646;2023-11-19T12:13:47;14.7;71.8
79301;SHT31;68755;51.984;5.646;2023-11-19T12:16:18;14.7;72.4
79301;SHT31;68755;51.984;5.646;2023-11-19T12:18:49;14.7;72.8
79301;SHT31;68755;51.984;5.646;2023-11-19T12:21:31;14.7;72.3
79301;SHT31;68755;51.984;5.646;2023-11-19T12:24:06;14.7;72.4
79301;SHT31;68755;51.984;5.646;2023-11-19T12:26:37;14.8;72.1
79301;SHT31;68755;51.984;5.646;2023-11-19T12:29:07;14.8;72.2
79301;SHT31;68755;51.984;5.646;2023-11-19T12:31:37;14.8;72.7
79301;SHT31;68755;51.984;5.646;2023-11-19T12:34:08;14.8;71.9
79301;SHT31;68755;51.984;5.646;2023-11-19T12:36:41;14.8;71.6
79301;SHT31;68755;51.984;5.646;2023-11-19T12:39:12;14.8;71.3
79301;SHT31;68755;51.984;5.646;2023-11-19T12:41:52;14.8;71.4
79301;SHT31;68755;51.984;5.646;2023-11-19T12:44:22;14.9;70.7
79301;SHT31;68755;51.984;5.646;2023-11-19T12:47:01;14.9;70.8
79301;SHT31;68755;51.984;5.646;2023-11-19T12:49:31;14.9;70.7
79301;SHT31;68755;51.984;5.646;2023-11-19T12:52:01;14.9;70.7
79301;SHT31;68755;51.984;5.646;2023-11-19T12:54:35;14.9;70.5
79301;SHT31;68755;51.984;5.646;2023-11-19T12:57:05;15.0;71.0
79301;SHT31;68755;51.984;5.646;2023-11-19T12:59:35;15.0;70.4
79301;SHT31;68755;51.984;5.646;2023-11-19T13:02:06;15.0;70.8
79301;SHT31;68755;51.984;5.646;2023-11-19T13:04:36;15.0;71.0
79301;SHT31;68755;51.984;5.646;2023-11-19T13:07:08;15.1;70.9
79301;SHT31;68755;51.984;5.646;2023-11-19T13:09:38;15.1;70.6
79301;SHT31;68755;51.984;5.646;2023-11-19T13:12:15;15.1;70.7
79301;SHT31;68755;51.984;5.646;2023-11-19T13:14:44;15.2;70.3
79301;SHT31;68755;51.984;5.646;2023-11-19T13:17:16;15.2;70.8
79301;SHT31;68755;51.984;5.646;2023-11-19T13:19:46;15.2;70.9
79301;SHT31;68755;51.984;5.646;2023-11-19T13:22:18;15.2;70.9
79301;SHT31;68755;51.984;5.646;2023-11-19T13:24:47;15.2;70.4
79301;SHT31;68755;51.984;5.646;2023-11-19T13:27:17;15.2;70.7
79301;SHT31;68755;51.984;5.646;2023-11-19T13:29:48;15.2;70.4
79301;SHT31;68755;51.984;5.646;2023-11-19T13:32:18;15.1;70.8
79301;SHT31;68755;51.984;5.646;2023-11-19T13:34:48;15.1;70.8
79301;SHT31;68755;51.984;5.646;2023-11-19T13:37:19;15.1;70.1
79301;SHT31;68755;51.984;5.646;2023-11-19T13:39:49;15.1;70.1
79301;SHT31;68755;51.984;5.646;2023-11-19T13:42:19;15.1;70.8
79301;SHT31;68755;51.984;5.646;2023-11-19T13:44:48;15.1;70.8
79301;SHT31;68755;51.984;5.646;2023-11-19T13:47:18;15.1;70.9
79301;SHT31;68755;51.984;5.646;2023-11-19T13:49:47;15.1;71.3
79301;SHT31;68755;51.984;5.646;2023-11-19T13:52:17;15.1;71.7
79301;SHT31;68755;51.984;5.646;2023-11-19T13:54:46;15.1;71.7
79301;SHT31;68755;51.984;5.646;2023-11-19T13:57:16;15.1;72.4
79301;SHT31;68755;51.984;5.646;2023-11-19T13:59:46;15.1;72.9
79301;SHT31;68755;51.984;5.646;2023-11-19T14:02:15;15.1;73.2
79301;SHT31;68755;51.984;5.646;2023-11-19T14:04:45;15.0;72.5
79301;SHT31;68755;51.984;5.646;2023-11-19T14:07:14;15.0;73.1
79301;SHT31;68755;51.984;5.646;2023-11-19T14:09:44;15.0;72.8
79301;SHT31;68755;51.984;5.646;2023-11-19T14:12:14;15.0;72.6
79301;SHT31;68755;51.984;5.646;2023-11-19T14:14:44;15.0;72.8
79301;SHT31;68755;51.984;5.646;2023-11-19T14:17:14;15.0;72.4
79301;SHT31;68755;51.984;5.646;2023-11-19T14:19:44;15.0;72.5
79301;SHT31;68755;51.984;5.646;2023-11-19T14:22:14;15.0;72.2
79301;SHT31;68755;51.984;5.646;2023-11-19T14:24:44;14.9;71.6
79301;SHT31;68755;51.984;5.646;2023-11-19T14:27:14;14.9;71.1
79301;SHT31;68755;51.984;5.646;2023-11-19T14:29:44;14.9;71.3
79301;SHT31;68755;51.984;5.646;2023-11-19T14:32:15;14.8;71.6
79301;SHT31;68755;51.984;5.646;2023-11-19T14:34:47;14.8;71.3
79301;SHT31;68755;51.984;5.646;2023-11-19T14:37:16;14.7;71.5
79301;SHT31;68755;51.984;5.646;2023-11-19T14:39:46;14.7;71.6
79301;SHT31;68755;51.984;5.646;2023-11-19T14:42:18;14.6;71.3
79301;SHT31;68755;51.984;5.646;2023-11-19T14:44:49;14.6;71.5
79301;SHT31;68755;51.984;5.646;2023-11-19T14:47:20;14.5;71.9
79301;SHT31;68755;51.984;5.646;2023-11-19T14:49:50;14.5;72.5
79301;SHT31;68755;51.984;5.646;2023-11-19T14:52:20;14.4;72.3
79301;SHT31;68755;51.984;5.646;2023-11-19T14:54:49;14.4;72.7
79301;SHT31;68755;51.984;5.646;2023-11-19T14:57:21;14.3;72.8
79301;SHT31;68755;51.984;5.646;2023-11-19T14:59:51;14.3;73.2
79301;SHT31;68755;51.984;5.646;2023-11-19T15:02:21;14.3;73.3
79301;SHT31;68755;51.984;5.646;2023-11-19T15:04:51;14.2;73.3
79301;SHT31;68755;51.984;5.646;2023-11-19T15:07:20;14.2;73.2
79301;SHT31;68755;51.984;5.646;2023-11-19T15:09:50;14.2;73.6
79301;SHT31;68755;51.984;5.646;2023-11-19T15:12:20;14.1;73.7
79301;SHT31;68755;51.984;5.646;2023-11-19T15:14:50;14.1;74.0
79301;SHT31;68755;51.984;5.646;2023-11-19T15:17:20;14.1;74.0
79301;SHT31;68755;51.984;5.646;2023-11-19T15:19:49;14.1;73.7
79301;SHT31;68755;51.984;5.646;2023-11-19T15:22:19;14.1;74.2
79301;SHT31;68755;51.984;5.646;2023-11-19T15:24:48;14.2;74.3
79301;SHT31;68755;51.984;5.646;2023-11-19T15:27:18;14.2;74.1
79301;SHT31;68755;51.984;5.646;2023-11-19T15:29:48;14.2;73.9
79301;SHT31;68755;51.984;5.646;2023-11-19T15:32:17;14.2;73.6
79301;SHT31;68755;51.984;5.646;2023-11-19T15:34:47;14.2;73.9
79301;SHT31;68755;51.984;5.646;2023-11-19T15:37:16;14.2;74.2
79301;SHT31;68755;51.984;5.646;2023-11-19T15:39:46;14.2;73.9
79301;SHT31;68755;51.984;5.646;2023-11-19T15:42:18;14.1;73.8
79301;SHT31;68755;51.984;5.646;2023-11-19T15:44:48;14.1;74.0
79301;SHT31;68755;51.984;5.646;2023-11-19T15:47:17;14.1;73.9
79301;SHT31;68755;51.984;5.646;2023-11-19T15:49:47;14.1;73.9
79301;SHT31;68755;51.984;5.646;2023-11-19T15:52:17;14.1;73.9
79301;SHT31;68755;51.984;5.646;2023-11-19T15:54:49;14.1;74.1
79301;SHT31;68755;51.984;5.646;2023-11-19T15:57:19;14.1;74.3
79301;SHT31;68755;51.984;5.646;2023-11-19T15:59:48;14.1;74.2
79301;SHT31;68755;51.984;5.646;2023-11-19T16:02:19;14.1;74.3
79301;SHT31;68755;51.984;5.646;2023-11-19T16:04:48;14.1;74.5
79301;SHT31;68755;51.984;5.646;2023-11-19T16:07:18;14.1;74.8
79301;SHT31;68755;51.984;5.646;2023-11-19T16:09:48;14.0;74.8
79301;SHT31;68755;51.984;5.646;2023-11-19T16:12:18;14.0;74.7
79301;SHT31;68755;51.984;5.646;2023-11-19T16:14:48;14.0;74.7
79301;SHT31;68755;51.984;5.646;2023-11-19T16:17:17;14.0;74.6
79301;SHT31;68755;51.984;5.646;2023-11-19T16:19:48;14.0;74.6
79301;SHT31;68755;51.984;5.646;2023-11-19T16:22:17;14.0;74.9
79301;SHT31;68755;51.984;5.646;2023-11-19T16:24:47;14.0;74.8
79301;SHT31;68755;51.984;5.646;2023-11-19T16:27:17;14.0;75.2